sensor_id;sensor_type;location;lat;lon;timestamp;P1;durP1;ratioP1;P2;durP2;ratioP2
12482;SDS011;6306;47.134;15.344;2022-07-01T00:01:21;10.93;;;9.80;;
12482;SDS011;6306;47.134;15.344;2022-07-01T00:03:47;10.00;;;9.07;;
12482;SDS011;6306;47.134;15.344;2022-07-01T00:06:14;11.70;;;8.47;;
12482;SDS011;6306;47.134;15.344;2022-07-01T00:08:40;9.40;;;8.20;;
12482;SDS011;6306;47.134;15.344;2022-07-01T00:11:06;9.93;;;8.00;;
12482;SDS011;6306;47.134;15.344;2022-07-01T00:13:33;11.83;;;8.70;;
12482;SDS011;6306;47.134;15.344;2022-07-01T00:15:59;9.40;;;8.47;;
12482;SDS011;6306;47.134;15.344;2022-07-01T00:18:25;10.03;;;8.50;;
12482;SDS011;6306;47.134;15.344;2022-07-01T00:20:51;9.63;;;8.50;;
12482;SDS011;6306;47.134;15.344;2022-07-01T00:23:18;11.70;;;8.47;;
12482;SDS011;6306;47.134;15.344;2022-07-01T00:25:44;10.47;;;8.20;;
12482;SDS011;6306;47.134;15.344;2022-07-01T00:28:10;9.83;;;8.83;;
12482;SDS011;6306;47.134;15.344;2022-07-01T00:30:36;11.00;;;8.50;;
12482;SDS011;6306;47.134;15.344;2022-07-01T00:33:03;9.87;;;8.87;;
12482;SDS011;6306;47.134;15.344;2022-07-01T00:35:29;9.03;;;7.93;;
12482;SDS011;6306;47.134;15.344;2022-07-01T00:37:55;9.17;;;8.27;;
12482;SDS011;6306;47.134;15.344;2022-07-01T00:40:21;10.07;;;9.10;;
12482;SDS011;6306;47.134;15.344;2022-07-01T00:42:48;13.90;;;10.50;;
12482;SDS011;6306;47.134;15.344;2022-07-01T00:45:14;10.30;;;7.87;;
12482;SDS011;6306;47.134;15.344;2022-07-01T00:47:40;10.80;;;9.67;;
12482;SDS011;6306;47.134;15.344;2022-07-01T00:50:07;10.80;;;8.50;;
12482;SDS011;6306;47.134;15.344;2022-07-01T00:52:34;11.40;;;9.30;;
12482;SDS011;6306;47.134;15.344;2022-07-01T00:55:04;12.03;;;9.43;;
12482;SDS011;6306;47.134;15.344;2022-07-01T00:57:31;13.37;;;9.10;;
12482;SDS011;6306;47.134;15.344;2022-07-01T00:59:57;16.10;;;8.37;;
12482;SDS011;6306;47.134;15.344;2022-07-01T01:02:23;10.10;;;8.90;;
12482;SDS011;6306;47.134;15.344;2022-07-01T01:04:49;10.67;;;9.47;;
12482;SDS011;6306;47.134;15.344;2022-07-01T01:07:16;9.53;;;7.93;;
12482;SDS011;6306;47.134;15.344;2022-07-01T01:09:42;9.93;;;8.27;;
12482;SDS011;6306;47.134;15.344;2022-07-01T01:12:09;11.57;;;10.13;;
12482;SDS011;6306;47.134;15.344;2022-07-01T01:14:43;10.53;;;9.00;;
12482;SDS011;6306;47.134;15.344;2022-07-01T01:17:09;8.87;;;7.97;;
12482;SDS011;6306;47.134;15.344;2022-07-01T01:19:35;8.60;;;7.80;;
12482;SDS011;6306;47.134;15.344;2022-07-01T01:22:01;10.43;;;9.40;;
12482;SDS011;6306;47.134;15.344;2022-07-01T01:24:28;12.63;;;9.23;;
12482;SDS011;6306;47.134;15.344;2022-07-01T01:26:54;9.83;;;8.70;;
12482;SDS011;6306;47.134;15.344;2022-07-01T01:29:20;19.40;;;10.10;;
12482;SDS011;6306;47.134;15.344;2022-07-01T01:31:45;10.53;;;9.50;;
12482;SDS011;6306;47.134;15.344;2022-07-01T01:34:11;19.23;;;10.20;;
12482;SDS011;6306;47.134;15.344;2022-07-01T01:36:38;13.77;;;9.40;;
12482;SDS011;6306;47.134;15.344;2022-07-01T01:39:04;11.03;;;9.60;;
12482;SDS011;6306;47.134;15.344;2022-07-01T01:41:39;9.37;;;8.47;;
12482;SDS011;6306;47.134;15.344;2022-07-01T01:44:05;10.17;;;7.93;;
12482;SDS011;6306;47.134;15.344;2022-07-01T01:46:31;10.57;;;8.10;;
12482;SDS011;6306;47.134;15.344;2022-07-01T01:48:57;9.70;;;8.40;;
12482;SDS011;6306;47.134;15.344;2022-07-01T01:51:24;11.23;;;8.60;;
12482;SDS011;6306;47.134;15.344;2022-07-01T01:53:50;10.87;;;8.90;;
12482;SDS011;6306;47.134;15.344;2022-07-01T01:56:16;9.70;;;8.70;;
12482;SDS011;6306;47.134;15.344;2022-07-01T01:58:42;12.10;;;9.17;;
12482;SDS011;6306;47.134;15.344;2022-07-01T02:01:10;10.20;;;9.10;;
12482;SDS011;6306;47.134;15.344;2022-07-01T02:03:36;16.13;;;9.03;;
12482;SDS011;6306;47.134;15.344;2022-07-01T02:06:03;12.27;;;9.40;;
12482;SDS011;6306;47.134;15.344;2022-07-01T02:08:29;11.00;;;9.23;;
12482;SDS011;6306;47.134;15.344;2022-07-01T02:10:55;9.23;;;7.77;;
12482;SDS011;6306;47.134;15.344;2022-07-01T02:13:21;8.83;;;7.90;;
12482;SDS011;6306;47.134;15.344;2022-07-01T02:15:47;9.83;;;8.83;;
12482;SDS011;6306;47.134;15.344;2022-07-01T02:18:16;10.57;;;8.43;;
12482;SDS011;6306;47.134;15.344;2022-07-01T02:20:42;10.57;;;9.00;;
12482;SDS011;6306;47.134;15.344;2022-07-01T02:23:09;10.23;;;8.57;;
12482;SDS011;6306;47.134;15.344;2022-07-01T02:25:35;11.40;;;7.57;;
12482;SDS011;6306;47.134;15.344;2022-07-01T02:28:01;9.30;;;8.23;;
12482;SDS011;6306;47.134;15.344;2022-07-01T02:30:28;15.00;;;9.60;;
12482;SDS011;6306;47.134;15.344;2022-07-01T02:32:55;13.27;;;8.73;;
12482;SDS011;6306;47.134;15.344;2022-07-01T02:35:22;10.30;;;9.23;;
12482;SDS011;6306;47.134;15.344;2022-07-01T02:37:48;13.23;;;8.67;;
12482;SDS011;6306;47.134;15.344;2022-07-01T02:40:14;13.43;;;10.23;;
12482;SDS011;6306;47.134;15.344;2022-07-01T02:42:41;11.17;;;9.10;;
12482;SDS011;6306;47.134;15.344;2022-07-01T02:45:07;9.37;;;8.47;;
12482;SDS011;6306;47.134;15.344;2022-07-01T02:47:37;12.97;;;9.43;;
12482;SDS011;6306;47.134;15.344;2022-07-01T02:50:04;12.27;;;8.73;;
12482;SDS011;6306;47.134;15.344;2022-07-01T02:52:30;9.23;;;8.40;;
12482;SDS011;6306;47.134;15.344;2022-07-01T02:54:59;16.03;;;9.30;;
12482;SDS011;6306;47.134;15.344;2022-07-01T02:57:25;14.60;;;10.40;;
12482;SDS011;6306;47.134;15.344;2022-07-01T02:59:51;9.47;;;8.57;;
12482;SDS011;6306;47.134;15.344;2022-07-01T03:02:20;11.43;;;9.20;;
12482;SDS011;6306;47.134;15.344;2022-07-01T03:04:47;11.77;;;10.50;;
12482;SDS011;6306;47.134;15.344;2022-07-01T03:07:13;12.43;;;10.40;;
12482;SDS011;6306;47.134;15.344;2022-07-01T03:09:40;10.00;;;9.00;;
12482;SDS011;6306;47.134;15.344;2022-07-01T03:12:09;11.50;;;9.33;;
12482;SDS011;6306;47.134;15.344;2022-07-01T03:14:54;12.67;;;9.40;;
12482;SDS011;6306;47.134;15.344;2022-07-01T03:17:27;10.63;;;9.50;;
12482;SDS011;6306;47.134;15.344;2022-07-01T03:19:54;12.97;;;10.23;;
12482;SDS011;6306;47.134;15.344;2022-07-01T03:22:20;11.17;;;9.70;;
12482;SDS011;6306;47.134;15.344;2022-07-01T03:24:47;15.90;;;10.50;;
12482;SDS011;6306;47.134;15.344;2022-07-01T03:27:13;13.37;;;9.97;;
12482;SDS011;6306;47.134;15.344;2022-07-01T03:29:39;12.63;;;10.73;;
12482;SDS011;6306;47.134;15.344;2022-07-01T03:32:06;12.53;;;10.83;;
12482;SDS011;6306;47.134;15.344;2022-07-01T03:34:34;14.37;;;9.57;;
12482;SDS011;6306;47.134;15.344;2022-07-01T03:37:00;12.90;;;10.50;;
12482;SDS011;6306;47.134;15.344;2022-07-01T03:39:26;13.83;;;8.80;;
12482;SDS011;6306;47.134;15.344;2022-07-01T03:41:52;12.67;;;10.10;;
12482;SDS011;6306;47.134;15.344;2022-07-01T03:44:18;11.63;;;10.43;;
12482;SDS011;6306;47.134;15.344;2022-07-01T03:46:44;13.07;;;10.33;;
12482;SDS011;6306;47.134;15.344;2022-07-01T03:49:10;14.20;;;10.40;;
12482;SDS011;6306;47.134;15.344;2022-07-01T03:51:36;13.00;;;10.43;;
12482;SDS011;6306;47.134;15.344;2022-07-01T03:54:02;23.80;;;10.47;;
12482;SDS011;6306;47.134;15.344;2022-07-01T03:56:47;13.60;;;11.37;;
12482;SDS011;6306;47.134;15.344;2022-07-01T03:59:12;18.57;;;12.37;;
12482;SDS011;6306;47.134;15.344;2022-07-01T04:01:39;13.40;;;9.50;;
12482;SDS011;6306;47.134;15.344;2022-07-01T04:04:05;18.83;;;9.47;;
12482;SDS011;6306;47.134;15.344;2022-07-01T04:06:30;11.90;;;9.87;;
12482;SDS011;6306;47.134;15.344;2022-07-01T04:08:57;16.20;;;10.60;;
12482;SDS011;6306;47.134;15.344;2022-07-01T04:11:23;15.33;;;10.07;;
12482;SDS011;6306;47.134;15.344;2022-07-01T04:13:49;15.13;;;11.60;;
12482;SDS011;6306;47.134;15.344;2022-07-01T04:16:16;16.27;;;9.07;;
12482;SDS011;6306;47.134;15.344;2022-07-01T04:18:42;12.13;;;10.80;;
12482;SDS011;6306;47.134;15.344;2022-07-01T04:21:09;14.87;;;10.53;;
12482;SDS011;6306;47.134;15.344;2022-07-01T04:23:53;13.50;;;8.77;;
12482;SDS011;6306;47.134;15.344;2022-07-01T04:26:21;10.07;;;8.53;;
12482;SDS011;6306;47.134;15.344;2022-07-01T04:28:47;11.23;;;9.10;;
12482;SDS011;6306;47.134;15.344;2022-07-01T04:31:13;11.40;;;9.70;;
12482;SDS011;6306;47.134;15.344;2022-07-01T04:33:39;14.07;;;10.13;;
12482;SDS011;6306;47.134;15.344;2022-07-01T04:36:06;11.00;;;9.00;;
12482;SDS011;6306;47.134;15.344;2022-07-01T04:38:32;13.17;;;11.37;;
12482;SDS011;6306;47.134;15.344;2022-07-01T04:40:58;15.00;;;10.27;;
12482;SDS011;6306;47.134;15.344;2022-07-01T04:43:43;11.20;;;10.10;;
12482;SDS011;6306;47.134;15.344;2022-07-01T04:46:09;27.70;;;14.30;;
12482;SDS011;6306;47.134;15.344;2022-07-01T04:48:35;24.43;;;11.73;;
12482;SDS011;6306;47.134;15.344;2022-07-01T04:51:01;17.20;;;10.23;;
12482;SDS011;6306;47.134;15.344;2022-07-01T04:53:27;11.73;;;10.20;;
12482;SDS011;6306;47.134;15.344;2022-07-01T04:55:53;13.83;;;10.20;;
12482;SDS011;6306;47.134;15.344;2022-07-01T04:58:19;12.50;;;8.80;;
12482;SDS011;6306;47.134;15.344;2022-07-01T05:00:45;15.30;;;11.97;;
12482;SDS011;6306;47.134;15.344;2022-07-01T05:03:13;14.17;;;10.53;;
12482;SDS011;6306;47.134;15.344;2022-07-01T05:05:39;11.83;;;9.73;;
12482;SDS011;6306;47.134;15.344;2022-07-01T05:08:05;12.23;;;10.87;;
12482;SDS011;6306;47.134;15.344;2022-07-01T05:10:31;14.73;;;9.33;;
12482;SDS011;6306;47.134;15.344;2022-07-01T05:12:58;16.17;;;11.57;;
12482;SDS011;6306;47.134;15.344;2022-07-01T05:15:24;15.97;;;11.40;;
12482;SDS011;6306;47.134;15.344;2022-07-01T05:17:50;15.57;;;12.07;;
12482;SDS011;6306;47.134;15.344;2022-07-01T05:20:35;13.40;;;10.27;;
12482;SDS011;6306;47.134;15.344;2022-07-01T05:23:19;13.10;;;10.40;;
12482;SDS011;6306;47.134;15.344;2022-07-01T05:25:45;10.43;;;9.40;;
12482;SDS011;6306;47.134;15.344;2022-07-01T05:28:11;12.90;;;10.67;;
12482;SDS011;6306;47.134;15.344;2022-07-01T05:30:37;11.80;;;10.10;;
12482;SDS011;6306;47.134;15.344;2022-07-01T05:33:03;12.30;;;11.00;;
12482;SDS011;6306;47.134;15.344;2022-07-01T05:35:29;12.83;;;10.63;;
12482;SDS011;6306;47.134;15.344;2022-07-01T05:37:56;14.90;;;12.00;;
12482;SDS011;6306;47.134;15.344;2022-07-01T05:40:22;9.80;;;8.90;;
12482;SDS011;6306;47.134;15.344;2022-07-01T05:42:48;12.13;;;9.20;;
12482;SDS011;6306;47.134;15.344;2022-07-01T05:45:14;13.73;;;10.83;;
12482;SDS011;6306;47.134;15.344;2022-07-01T05:47:40;12.20;;;9.63;;
12482;SDS011;6306;47.134;15.344;2022-07-01T05:50:06;13.33;;;10.47;;
12482;SDS011;6306;47.134;15.344;2022-07-01T05:52:32;12.20;;;10.53;;
12482;SDS011;6306;47.134;15.344;2022-07-01T05:54:59;13.67;;;10.07;;
12482;SDS011;6306;47.134;15.344;2022-07-01T05:57:25;12.87;;;9.60;;
12482;SDS011;6306;47.134;15.344;2022-07-01T05:59:51;12.57;;;10.03;;
12482;SDS011;6306;47.134;15.344;2022-07-01T06:02:17;11.30;;;8.93;;
12482;SDS011;6306;47.134;15.344;2022-07-01T06:04:43;14.00;;;10.27;;
12482;SDS011;6306;47.134;15.344;2022-07-01T06:07:09;11.07;;;9.83;;
12482;SDS011;6306;47.134;15.344;2022-07-01T06:09:35;10.30;;;9.30;;
12482;SDS011;6306;47.134;15.344;2022-07-01T06:12:02;11.40;;;10.20;;
12482;SDS011;6306;47.134;15.344;2022-07-01T06:14:28;17.87;;;9.20;;
12482;SDS011;6306;47.134;15.344;2022-07-01T06:16:54;14.00;;;10.70;;
12482;SDS011;6306;47.134;15.344;2022-07-01T06:19:20;16.30;;;11.70;;
12482;SDS011;6306;47.134;15.344;2022-07-01T06:21:46;13.93;;;10.63;;
12482;SDS011;6306;47.134;15.344;2022-07-01T06:24:13;12.60;;;10.40;;
12482;SDS011;6306;47.134;15.344;2022-07-01T06:26:39;11.60;;;9.90;;
12482;SDS011;6306;47.134;15.344;2022-07-01T06:29:05;14.43;;;10.80;;
12482;SDS011;6306;47.134;15.344;2022-07-01T06:31:32;14.47;;;10.80;;
12482;SDS011;6306;47.134;15.344;2022-07-01T06:33:58;11.03;;;9.67;;
12482;SDS011;6306;47.134;15.344;2022-07-01T06:36:24;14.17;;;10.97;;
12482;SDS011;6306;47.134;15.344;2022-07-01T06:38:51;11.50;;;9.47;;
12482;SDS011;6306;47.134;15.344;2022-07-01T06:41:17;14.77;;;10.40;;
12482;SDS011;6306;47.134;15.344;2022-07-01T06:43:55;12.47;;;9.70;;
12482;SDS011;6306;47.134;15.344;2022-07-01T06:46:21;15.97;;;11.60;;
12482;SDS011;6306;47.134;15.344;2022-07-01T06:48:47;12.50;;;9.60;;
12482;SDS011;6306;47.134;15.344;2022-07-01T06:51:14;11.50;;;10.33;;
12482;SDS011;6306;47.134;15.344;2022-07-01T06:53:40;13.23;;;9.93;;
12482;SDS011;6306;47.134;15.344;2022-07-01T06:56:06;11.63;;;9.90;;
12482;SDS011;6306;47.134;15.344;2022-07-01T06:58:32;11.40;;;9.67;;
12482;SDS011;6306;47.134;15.344;2022-07-01T07:00:58;12.63;;;10.70;;
12482;SDS011;6306;47.134;15.344;2022-07-01T07:03:24;15.90;;;10.63;;
12482;SDS011;6306;47.134;15.344;2022-07-01T07:05:51;13.03;;;9.13;;
12482;SDS011;6306;47.134;15.344;2022-07-01T07:08:17;11.03;;;9.47;;
12482;SDS011;6306;47.134;15.344;2022-07-01T07:10:43;9.77;;;8.80;;
12482;SDS011;6306;47.134;15.344;2022-07-01T07:13:09;14.87;;;10.13;;
12482;SDS011;6306;47.134;15.344;2022-07-01T07:15:35;11.60;;;9.90;;
12482;SDS011;6306;47.134;15.344;2022-07-01T07:18:06;10.77;;;9.77;;
12482;SDS011;6306;47.134;15.344;2022-07-01T07:20:32;13.80;;;9.73;;
12482;SDS011;6306;47.134;15.344;2022-07-01T07:22:58;10.33;;;9.30;;
12482;SDS011;6306;47.134;15.344;2022-07-01T07:25:25;11.77;;;9.40;;
12482;SDS011;6306;47.134;15.344;2022-07-01T07:27:51;10.10;;;8.83;;
12482;SDS011;6306;47.134;15.344;2022-07-01T07:30:17;10.77;;;9.03;;
12482;SDS011;6306;47.134;15.344;2022-07-01T07:32:43;10.37;;;9.27;;
12482;SDS011;6306;47.134;15.344;2022-07-01T07:35:09;9.60;;;8.57;;
12482;SDS011;6306;47.134;15.344;2022-07-01T07:37:36;13.63;;;9.17;;
12482;SDS011;6306;47.134;15.344;2022-07-01T07:40:02;10.03;;;9.00;;
12482;SDS011;6306;47.134;15.344;2022-07-01T07:42:28;10.80;;;9.20;;
12482;SDS011;6306;47.134;15.344;2022-07-01T07:44:55;10.67;;;9.60;;
12482;SDS011;6306;47.134;15.344;2022-07-01T07:47:21;10.17;;;9.10;;
12482;SDS011;6306;47.134;15.344;2022-07-01T07:49:47;8.60;;;7.60;;
12482;SDS011;6306;47.134;15.344;2022-07-01T07:52:13;12.93;;;10.20;;
12482;SDS011;6306;47.134;15.344;2022-07-01T07:54:39;10.70;;;9.60;;
12482;SDS011;6306;47.134;15.344;2022-07-01T07:57:05;12.70;;;9.80;;
12482;SDS011;6306;47.134;15.344;2022-07-01T07:59:33;12.97;;;10.17;;
12482;SDS011;6306;47.134;15.344;2022-07-01T08:01:59;10.20;;;9.13;;
12482;SDS011;6306;47.134;15.344;2022-07-01T08:04:25;9.60;;;8.63;;
12482;SDS011;6306;47.134;15.344;2022-07-01T08:06:51;11.43;;;8.40;;
12482;SDS011;6306;47.134;15.344;2022-07-01T08:09:17;9.77;;;7.73;;
12482;SDS011;6306;47.134;15.344;2022-07-01T08:11:43;9.30;;;8.30;;
12482;SDS011;6306;47.134;15.344;2022-07-01T08:14:10;8.00;;;7.20;;
12482;SDS011;6306;47.134;15.344;2022-07-01T08:16:36;9.30;;;7.60;;
12482;SDS011;6306;47.134;15.344;2022-07-01T08:19:02;9.90;;;7.87;;
12482;SDS011;6306;47.134;15.344;2022-07-01T08:21:28;9.70;;;6.47;;
12482;SDS011;6306;47.134;15.344;2022-07-01T08:23:54;8.80;;;6.60;;
12482;SDS011;6306;47.134;15.344;2022-07-01T08:26:21;9.50;;;6.43;;
12482;SDS011;6306;47.134;15.344;2022-07-01T08:28:46;6.93;;;6.03;;
12482;SDS011;6306;47.134;15.344;2022-07-01T08:31:13;7.13;;;6.53;;
12482;SDS011;6306;47.134;15.344;2022-07-01T08:33:39;4.97;;;4.53;;
12482;SDS011;6306;47.134;15.344;2022-07-01T08:36:07;7.80;;;7.00;;
12482;SDS011;6306;47.134;15.344;2022-07-01T08:38:34;11.37;;;6.63;;
12482;SDS011;6306;47.134;15.344;2022-07-01T08:41:00;7.70;;;6.90;;
12482;SDS011;6306;47.134;15.344;2022-07-01T08:43:27;8.80;;;7.93;;
12482;SDS011;6306;47.134;15.344;2022-07-01T08:45:53;8.00;;;6.90;;
12482;SDS011;6306;47.134;15.344;2022-07-01T08:48:20;7.77;;;7.07;;
12482;SDS011;6306;47.134;15.344;2022-07-01T08:50:46;9.17;;;7.20;;
12482;SDS011;6306;47.134;15.344;2022-07-01T08:53:12;8.30;;;7.00;;
12482;SDS011;6306;47.134;15.344;2022-07-01T08:55:39;8.63;;;7.00;;
12482;SDS011;6306;47.134;15.344;2022-07-01T08:58:25;8.23;;;6.70;;
12482;SDS011;6306;47.134;15.344;2022-07-01T09:00:51;8.50;;;7.30;;
12482;SDS011;6306;47.134;15.344;2022-07-01T09:03:20;8.20;;;7.40;;
12482;SDS011;6306;47.134;15.344;2022-07-01T09:05:51;8.70;;;7.87;;
12482;SDS011;6306;47.134;15.344;2022-07-01T09:08:18;8.70;;;7.27;;
12482;SDS011;6306;47.134;15.344;2022-07-01T09:10:44;10.50;;;7.77;;
12482;SDS011;6306;47.134;15.344;2022-07-01T09:13:11;10.57;;;8.20;;
12482;SDS011;6306;47.134;15.344;2022-07-01T09:15:38;10.60;;;8.50;;
12482;SDS011;6306;47.134;15.344;2022-07-01T09:20:32;8.80;;;7.60;;
12482;SDS011;6306;47.134;15.344;2022-07-01T09:22:59;7.63;;;6.93;;
12482;SDS011;6306;47.134;15.344;2022-07-01T09:25:29;12.10;;;8.57;;
12482;SDS011;6306;47.134;15.344;2022-07-01T09:28:02;8.70;;;7.80;;
12482;SDS011;6306;47.134;15.344;2022-07-01T09:30:28;8.17;;;7.27;;
12482;SDS011;6306;47.134;15.344;2022-07-01T09:33:13;9.10;;;6.50;;
12482;SDS011;6306;47.134;15.344;2022-07-01T09:35:40;16.03;;;7.30;;
12482;SDS011;6306;47.134;15.344;2022-07-01T09:38:07;7.33;;;6.63;;
12482;SDS011;6306;47.134;15.344;2022-07-01T09:40:49;9.70;;;6.17;;
12482;SDS011;6306;47.134;15.344;2022-07-01T09:43:17;7.13;;;6.37;;
12482;SDS011;6306;47.134;15.344;2022-07-01T09:46:16;12.27;;;6.70;;
12482;SDS011;6306;47.134;15.344;2022-07-01T09:51:02;5.97;;;5.37;;
12482;SDS011;6306;47.134;15.344;2022-07-01T09:53:28;8.37;;;6.57;;
12482;SDS011;6306;47.134;15.344;2022-07-01T09:55:54;12.50;;;5.50;;
12482;SDS011;6306;47.134;15.344;2022-07-01T09:58:20;8.37;;;6.70;;
12482;SDS011;6306;47.134;15.344;2022-07-01T10:00:47;7.23;;;5.83;;
12482;SDS011;6306;47.134;15.344;2022-07-01T10:03:13;5.47;;;5.00;;
12482;SDS011;6306;47.134;15.344;2022-07-01T10:05:47;6.20;;;5.37;;
12482;SDS011;6306;47.134;15.344;2022-07-01T10:11:01;7.50;;;5.17;;
12482;SDS011;6306;47.134;15.344;2022-07-01T10:13:31;11.10;;;6.30;;
12482;SDS011;6306;47.134;15.344;2022-07-01T10:15:57;9.13;;;5.07;;
12482;SDS011;6306;47.134;15.344;2022-07-01T10:18:24;11.97;;;5.50;;
12482;SDS011;6306;47.134;15.344;2022-07-01T10:20:51;7.83;;;5.23;;
12482;SDS011;6306;47.134;15.344;2022-07-01T10:23:19;7.13;;;5.00;;
12482;SDS011;6306;47.134;15.344;2022-07-01T10:25:47;4.87;;;4.47;;
12482;SDS011;6306;47.134;15.344;2022-07-01T10:31:02;9.63;;;5.37;;
12482;SDS011;6306;47.134;15.344;2022-07-01T10:33:34;6.33;;;5.23;;
12482;SDS011;6306;47.134;15.344;2022-07-01T10:36:07;9.30;;;5.03;;
12482;SDS011;6306;47.134;15.344;2022-07-01T10:38:34;5.57;;;5.07;;
12482;SDS011;6306;47.134;15.344;2022-07-01T10:41:00;6.07;;;4.90;;
12482;SDS011;6306;47.134;15.344;2022-07-01T10:43:35;5.00;;;4.60;;
12482;SDS011;6306;47.134;15.344;2022-07-01T10:46:02;6.70;;;5.13;;
12482;SDS011;6306;47.134;15.344;2022-07-01T10:48:32;7.23;;;5.57;;
12482;SDS011;6306;47.134;15.344;2022-07-01T10:50:58;6.23;;;5.50;;
12482;SDS011;6306;47.134;15.344;2022-07-01T10:53:24;5.00;;;4.50;;
12482;SDS011;6306;47.134;15.344;2022-07-01T10:55:56;5.40;;;4.93;;
12482;SDS011;6306;47.134;15.344;2022-07-01T10:58:37;5.00;;;4.53;;
12482;SDS011;6306;47.134;15.344;2022-07-01T11:01:03;5.97;;;5.23;;
12482;SDS011;6306;47.134;15.344;2022-07-01T11:03:33;7.33;;;5.20;;
12482;SDS011;6306;47.134;15.344;2022-07-01T11:06:00;5.03;;;4.53;;
12482;SDS011;6306;47.134;15.344;2022-07-01T11:08:26;5.77;;;5.27;;
12482;SDS011;6306;47.134;15.344;2022-07-01T11:10:54;5.93;;;5.40;;
12482;SDS011;6306;47.134;15.344;2022-07-01T11:13:21;7.10;;;5.40;;
12482;SDS011;6306;47.134;15.344;2022-07-01T11:15:47;6.07;;;5.50;;
12482;SDS011;6306;47.134;15.344;2022-07-01T11:18:15;5.27;;;4.63;;
12482;SDS011;6306;47.134;15.344;2022-07-01T11:20:41;4.67;;;4.27;;
12482;SDS011;6306;47.134;15.344;2022-07-01T11:23:07;8.30;;;5.90;;
12482;SDS011;6306;47.134;15.344;2022-07-01T11:25:33;7.17;;;6.53;;
12482;SDS011;6306;47.134;15.344;2022-07-01T11:28:00;4.83;;;4.50;;
12482;SDS011;6306;47.134;15.344;2022-07-01T11:30:26;8.20;;;6.60;;
12482;SDS011;6306;47.134;15.344;2022-07-01T11:32:53;7.37;;;6.30;;
12482;SDS011;6306;47.134;15.344;2022-07-01T11:35:25;4.90;;;4.40;;
12482;SDS011;6306;47.134;15.344;2022-07-01T11:38:12;4.73;;;4.33;;
12482;SDS011;6306;47.134;15.344;2022-07-01T11:40:58;4.93;;;4.47;;
12482;SDS011;6306;47.134;15.344;2022-07-01T11:43:26;5.70;;;5.03;;
12482;SDS011;6306;47.134;15.344;2022-07-01T11:45:52;6.80;;;4.50;;
12482;SDS011;6306;47.134;15.344;2022-07-01T11:48:28;5.50;;;4.43;;
12482;SDS011;6306;47.134;15.344;2022-07-01T11:50:54;6.23;;;3.90;;
12482;SDS011;6306;47.134;15.344;2022-07-01T11:53:20;14.03;;;4.70;;
12482;SDS011;6306;47.134;15.344;2022-07-01T11:55:47;5.67;;;4.60;;
12482;SDS011;6306;47.134;15.344;2022-07-01T11:58:13;4.83;;;3.93;;
12482;SDS011;6306;47.134;15.344;2022-07-01T12:00:39;4.53;;;4.13;;
12482;SDS011;6306;47.134;15.344;2022-07-01T12:03:05;3.90;;;3.50;;
12482;SDS011;6306;47.134;15.344;2022-07-01T12:05:32;5.23;;;3.87;;
12482;SDS011;6306;47.134;15.344;2022-07-01T12:07:58;6.90;;;3.97;;
12482;SDS011;6306;47.134;15.344;2022-07-01T12:10:25;5.37;;;3.77;;
12482;SDS011;6306;47.134;15.344;2022-07-01T12:12:51;4.27;;;3.40;;
12482;SDS011;6306;47.134;15.344;2022-07-01T12:15:17;5.97;;;3.07;;
12482;SDS011;6306;47.134;15.344;2022-07-01T12:17:43;3.77;;;3.30;;
12482;SDS011;6306;47.134;15.344;2022-07-01T12:20:09;3.00;;;2.80;;
12482;SDS011;6306;47.134;15.344;2022-07-01T12:22:36;3.53;;;3.20;;
12482;SDS011;6306;47.134;15.344;2022-07-01T12:25:08;4.73;;;3.43;;
12482;SDS011;6306;47.134;15.344;2022-07-01T12:27:36;3.70;;;3.30;;
12482;SDS011;6306;47.134;15.344;2022-07-01T12:30:03;4.10;;;3.70;;
12482;SDS011;6306;47.134;15.344;2022-07-01T12:32:30;4.47;;;3.57;;
12482;SDS011;6306;47.134;15.344;2022-07-01T12:37:26;6.60;;;2.83;;
12482;SDS011;6306;47.134;15.344;2022-07-01T12:39:59;3.60;;;3.10;;
12482;SDS011;6306;47.134;15.344;2022-07-01T12:42:27;3.00;;;2.40;;
12482;SDS011;6306;47.134;15.344;2022-07-01T12:44:54;3.77;;;3.40;;
12482;SDS011;6306;47.134;15.344;2022-07-01T12:47:24;3.10;;;2.80;;
12482;SDS011;6306;47.134;15.344;2022-07-01T12:50:07;3.90;;;3.00;;
12482;SDS011;6306;47.134;15.344;2022-07-01T12:52:33;3.03;;;2.30;;
12482;SDS011;6306;47.134;15.344;2022-07-01T12:54:59;4.37;;;2.73;;
12482;SDS011;6306;47.134;15.344;2022-07-01T12:57:29;3.10;;;2.80;;
12482;SDS011;6306;47.134;15.344;2022-07-01T12:59:56;4.00;;;3.60;;
12482;SDS011;6306;47.134;15.344;2022-07-01T13:02:22;4.80;;;3.23;;
12482;SDS011;6306;47.134;15.344;2022-07-01T13:04:48;3.37;;;3.07;;
12482;SDS011;6306;47.134;15.344;2022-07-01T13:07:14;12.00;;;4.13;;
12482;SDS011;6306;47.134;15.344;2022-07-01T13:09:40;3.43;;;3.23;;
12482;SDS011;6306;47.134;15.344;2022-07-01T13:12:06;6.07;;;3.60;;
12482;SDS011;6306;47.134;15.344;2022-07-01T13:14:32;7.03;;;4.00;;
12482;SDS011;6306;47.134;15.344;2022-07-01T13:16:59;3.47;;;3.17;;
12482;SDS011;6306;47.134;15.344;2022-07-01T13:19:25;3.20;;;2.90;;
12482;SDS011;6306;47.134;15.344;2022-07-01T13:21:51;3.67;;;3.37;;
12482;SDS011;6306;47.134;15.344;2022-07-01T13:24:17;3.97;;;3.67;;
12482;SDS011;6306;47.134;15.344;2022-07-01T13:26:45;6.27;;;3.93;;
12482;SDS011;6306;47.134;15.344;2022-07-01T13:29:11;3.33;;;3.03;;
12482;SDS011;6306;47.134;15.344;2022-07-01T13:31:37;3.63;;;3.33;;
12482;SDS011;6306;47.134;15.344;2022-07-01T13:34:03;3.10;;;2.80;;
12482;SDS011;6306;47.134;15.344;2022-07-01T13:36:30;3.40;;;3.10;;
12482;SDS011;6306;47.134;15.344;2022-07-01T13:38:56;3.27;;;2.97;;
12482;SDS011;6306;47.134;15.344;2022-07-01T13:41:22;6.23;;;3.67;;
12482;SDS011;6306;47.134;15.344;2022-07-01T13:43:49;2.97;;;2.77;;
12482;SDS011;6306;47.134;15.344;2022-07-01T13:46:15;3.37;;;3.07;;
12482;SDS011;6306;47.134;15.344;2022-07-01T13:48:41;3.70;;;2.43;;
12482;SDS011;6306;47.134;15.344;2022-07-01T13:51:07;3.80;;;3.50;;
12482;SDS011;6306;47.134;15.344;2022-07-01T13:53:33;3.07;;;2.80;;
12482;SDS011;6306;47.134;15.344;2022-07-01T13:55:59;7.90;;;3.53;;
12482;SDS011;6306;47.134;15.344;2022-07-01T13:58:25;4.50;;;3.20;;
12482;SDS011;6306;47.134;15.344;2022-07-01T14:00:51;6.50;;;3.43;;
12482;SDS011;6306;47.134;15.344;2022-07-01T14:03:17;4.80;;;3.17;;
12482;SDS011;6306;47.134;15.344;2022-07-01T14:05:43;3.77;;;3.47;;
12482;SDS011;6306;47.134;15.344;2022-07-01T14:08:09;3.93;;;3.63;;
12482;SDS011;6306;47.134;15.344;2022-07-01T14:10:35;4.03;;;3.73;;
12482;SDS011;6306;47.134;15.344;2022-07-01T14:13:03;6.77;;;3.30;;
12482;SDS011;6306;47.134;15.344;2022-07-01T14:15:29;3.40;;;3.10;;
12482;SDS011;6306;47.134;15.344;2022-07-01T14:17:55;7.60;;;3.93;;
12482;SDS011;6306;47.134;15.344;2022-07-01T14:20:21;3.27;;;2.97;;
12482;SDS011;6306;47.134;15.344;2022-07-01T14:22:47;5.03;;;3.70;;
12482;SDS011;6306;47.134;15.344;2022-07-01T14:25:13;3.63;;;3.20;;
12482;SDS011;6306;47.134;15.344;2022-07-01T14:27:39;5.80;;;2.97;;
12482;SDS011;6306;47.134;15.344;2022-07-01T14:30:05;3.10;;;2.67;;
12482;SDS011;6306;47.134;15.344;2022-07-01T14:32:31;3.63;;;2.73;;
12482;SDS011;6306;47.134;15.344;2022-07-01T14:34:59;4.67;;;2.90;;
12482;SDS011;6306;47.134;15.344;2022-07-01T14:37:27;3.97;;;3.30;;
12482;SDS011;6306;47.134;15.344;2022-07-01T14:39:53;3.17;;;2.90;;
12482;SDS011;6306;47.134;15.344;2022-07-01T14:42:22;3.70;;;2.67;;
12482;SDS011;6306;47.134;15.344;2022-07-01T14:44:48;3.83;;;2.87;;
12482;SDS011;6306;47.134;15.344;2022-07-01T14:47:15;3.83;;;3.03;;
12482;SDS011;6306;47.134;15.344;2022-07-01T14:49:41;3.40;;;3.20;;
12482;SDS011;6306;47.134;15.344;2022-07-01T14:52:09;5.80;;;3.50;;